sensor_id;sensor_type;location;lat;lon;timestamp;temperature;humidity
17172;DHT22;8701;50.150;8.756;2023-11-21T00:01:33;10.50;99.90
17172;DHT22;8701;50.150;8.756;2023-11-21T00:05:35;10.50;99.90
17172;DHT22;8701;50.150;8.756;2023-11-21T00:09:39;10.50;99.90
17172;DHT22;8701;50.150;8.756;2023-11-21T00:13:41;10.50;99.90
17172;DHT22;8701;50.150;8.756;2023-11-21T00:17:43;10.50;99.90
17172;DHT22;8701;50.150;8.756;2023-11-21T00:21:45;10.50;99.90
17172;DHT22;8701;50.150;8.756;2023-11-21T00:25:49;10.50;99.90
17172;DHT22;8701;50.150;8.756;2023-11-21T00:29:51;10.50;99.90
17172;DHT22;8701;50.150;8.756;2023-11-21T00:33:53;10.40;99.90
17172;DHT22;8701;50.150;8.756;2023-11-21T00:37:56;10.40;99.90
17172;DHT22;8701;50.150;8.756;2023-11-21T00:42:01;10.40;99.90
17172;DHT22;8701;50.150;8.756;2023-11-21T00:46:04;10.40;99.90
17172;DHT22;8701;50.150;8.756;2023-11-21T00:50:08;10.40;99.90
17172;DHT22;8701;50.150;8.756;2023-11-21T00:54:12;10.40;99.90
17172;DHT22;8701;50.150;8.756;2023-11-21T00:58:15;10.50;99.90
17172;DHT22;8701;50.150;8.756;2023-11-21T01:02:18;10.50;99.90
17172;DHT22;8701;50.150;8.756;2023-11-21T01:06:21;10.40;99.90
17172;DHT22;8701;50.150;8.756;2023-11-21T01:10:23;10.40;99.90
17172;DHT22;8701;50.150;8.756;2023-11-21T01:14:27;10.40;99.90
17172;DHT22;8701;50.150;8.756;2023-11-21T01:18:29;10.40;99.90
17172;DHT22;8701;50.150;8.756;2023-11-21T01:22:32;10.40;99.90
17172;DHT22;8701;50.150;8.756;2023-11-21T01:26:35;10.40;99.90
17172;DHT22;8701;50.150;8.756;2023-11-21T01:30:38;10.40;99.90
17172;DHT22;8701;50.150;8.756;2023-11-21T01:34:41;10.30;99.90
17172;DHT22;8701;50.150;8.756;2023-11-21T01:38:43;10.30;99.90
17172;DHT22;8701;50.150;8.756;2023-11-21T01:42:46;10.40;99.90
17172;DHT22;8701;50.150;8.756;2023-11-21T01:46:50;10.30;99.90
17172;DHT22;8701;50.150;8.756;2023-11-21T01:50:55;10.40;99.90
17172;DHT22;8701;50.150;8.756;2023-11-21T01:54:58;10.40;99.90
17172;DHT22;8701;50.150;8.756;2023-11-21T01:59:01;10.30;99.90
17172;DHT22;8701;50.150;8.756;2023-11-21T02:03:05;10.30;99.90
17172;DHT22;8701;50.150;8.756;2023-11-21T02:07:08;10.30;99.90
17172;DHT22;8701;50.150;8.756;2023-11-21T02:11:11;10.30;99.90
17172;DHT22;8701;50.150;8.756;2023-11-21T02:15:15;10.30;99.90
17172;DHT22;8701;50.150;8.756;2023-11-21T02:19:23;10.30;99.90
17172;DHT22;8701;50.150;8.756;2023-11-21T02:23:28;10.30;99.90
17172;DHT22;8701;50.150;8.756;2023-11-21T02:27:30;10.30;99.90
17172;DHT22;8701;50.150;8.756;2023-11-21T02:31:32;10.30;99.90
17172;DHT22;8701;50.150;8.756;2023-11-21T02:35:35;10.20;99.90
17172;DHT22;8701;50.150;8.756;2023-11-21T02:39:40;10.30;99.90
17172;DHT22;8701;50.150;8.756;2023-11-21T02:43:42;10.20;99.90
17172;DHT22;8701;50.150;8.756;2023-11-21T02:47:44;10.20;99.90
17172;DHT22;8701;50.150;8.756;2023-11-21T02:51:47;10.20;99.90
17172;DHT22;8701;50.150;8.756;2023-11-21T02:55:50;10.20;99.90
17172;DHT22;8701;50.150;8.756;2023-11-21T02:59:54;10.30;99.90
17172;DHT22;8701;50.150;8.756;2023-11-21T03:03:56;10.20;99.90
17172;DHT22;8701;50.150;8.756;2023-11-21T03:07:58;10.20;99.90
17172;DHT22;8701;50.150;8.756;2023-11-21T03:12:02;10.20;99.90
17172;DHT22;8701;50.150;8.756;2023-11-21T03:16:05;10.10;99.90
17172;DHT22;8701;50.150;8.756;2023-11-21T03:20:10;10.20;99.90
17172;DHT22;8701;50.150;8.756;2023-11-21T03:24:12;10.20;99.90
17172;DHT22;8701;50.150;8.756;2023-11-21T03:28:19;10.10;99.90
17172;DHT22;8701;50.150;8.756;2023-11-21T03:32:21;10.20;99.90
17172;DHT22;8701;50.150;8.756;2023-11-21T03:36:23;10.10;99.90
17172;DHT22;8701;50.150;8.756;2023-11-21T03:40:27;10.10;99.90
17172;DHT22;8701;50.150;8.756;2023-11-21T03:44:31;10.10;99.90
17172;DHT22;8701;50.150;8.756;2023-11-21T03:48:33;10.10;99.90
17172;DHT22;8701;50.150;8.756;2023-11-21T03:52:37;10.10;99.90
17172;DHT22;8701;50.150;8.756;2023-11-21T03:56:39;10.10;99.90
17172;DHT22;8701;50.150;8.756;2023-11-21T04:00:42;10.10;99.90
17172;DHT22;8701;50.150;8.756;2023-11-21T04:04:45;10.10;99.90
17172;DHT22;8701;50.150;8.756;2023-11-21T04:08:47;10.10;99.90
17172;DHT22;8701;50.150;8.756;2023-11-21T04:12:49;10.10;99.90
17172;DHT22;8701;50.150;8.756;2023-11-21T04:16:53;10.10;99.90
17172;DHT22;8701;50.150;8.756;2023-11-21T04:20:55;10.10;99.90
17172;DHT22;8701;50.150;8.756;2023-11-21T04:24:57;10.20;99.90
17172;DHT22;8701;50.150;8.756;2023-11-21T04:29:00;10.20;99.90
17172;DHT22;8701;50.150;8.756;2023-11-21T04:33:03;10.20;99.90
17172;DHT22;8701;50.150;8.756;2023-11-21T04:37:05;10.10;99.90
17172;DHT22;8701;50.150;8.756;2023-11-21T04:41:08;10.10;99.90
17172;DHT22;8701;50.150;8.756;2023-11-21T04:45:10;10.10;99.90
17172;DHT22;8701;50.150;8.756;2023-11-21T04:49:14;10.10;99.90
17172;DHT22;8701;50.150;8.756;2023-11-21T04:53:16;10.10;99.90
17172;DHT22;8701;50.150;8.756;2023-11-21T04:57:18;10.10;99.90
17172;DHT22;8701;50.150;8.756;2023-11-21T05:01:21;10.20;99.90
17172;DHT22;8701;50.150;8.756;2023-11-21T05:05:25;10.20;99.90
17172;DHT22;8701;50.150;8.756;2023-11-21T05:09:27;10.20;99.90
17172;DHT22;8701;50.150;8.756;2023-11-21T05:13:33;10.20;99.90
17172;DHT22;8701;50.150;8.756;2023-11-21T05:17:36;10.20;99.90
17172;DHT22;8701;50.150;8.756;2023-11-21T05:21:39;10.20;99.90
17172;DHT22;8701;50.150;8.756;2023-11-21T05:25:41;10.20;99.90
17172;DHT22;8701;50.150;8.756;2023-11-21T05:29:44;10.10;99.90
17172;DHT22;8701;50.150;8.756;2023-11-21T05:33:47;10.20;99.90
17172;DHT22;8701;50.150;8.756;2023-11-21T05:37:50;10.20;99.90
17172;DHT22;8701;50.150;8.756;2023-11-21T05:41:52;10.20;99.90
17172;DHT22;8701;50.150;8.756;2023-11-21T05:45:55;10.20;99.90
17172;DHT22;8701;50.150;8.756;2023-11-21T05:49:57;10.20;99.90
17172;DHT22;8701;50.150;8.756;2023-11-21T05:54:01;10.20;99.90
17172;DHT22;8701;50.150;8.756;2023-11-21T05:58:03;10.20;99.90
17172;DHT22;8701;50.150;8.756;2023-11-21T06:02:05;10.20;99.90
17172;DHT22;8701;50.150;8.756;2023-11-21T06:06:08;10.20;99.90
17172;DHT22;8701;50.150;8.756;2023-11-21T06:10:12;10.10;99.90
17172;DHT22;8701;50.150;8.756;2023-11-21T06:14:15;10.10;99.90
17172;DHT22;8701;50.150;8.756;2023-11-21T06:18:18;10.10;99.90
17172;DHT22;8701;50.150;8.756;2023-11-21T06:22:21;10.10;99.90
17172;DHT22;8701;50.150;8.756;2023-11-21T06:26:24;10.10;99.90
17172;DHT22;8701;50.150;8.756;2023-11-21T06:30:27;10.10;99.90
17172;DHT22;8701;50.150;8.756;2023-11-21T06:34:29;10.10;99.90
17172;DHT22;8701;50.150;8.756;2023-11-21T06:38:32;10.00;99.90
17172;DHT22;8701;50.150;8.756;2023-11-21T06:42:35;10.00;99.90
17172;DHT22;8701;50.150;8.756;2023-11-21T06:46:39;9.90;99.90
17172;DHT22;8701;50.150;8.756;2023-11-21T06:50:44;9.90;99.90
17172;DHT22;8701;50.150;8.756;2023-11-21T06:54:47;9.90;99.90
17172;DHT22;8701;50.150;8.756;2023-11-21T06:58:52;9.90;99.90
17172;DHT22;8701;50.150;8.756;2023-11-21T07:02:55;9.90;99.90
17172;DHT22;8701;50.150;8.756;2023-11-21T07:06:57;9.80;99.90
17172;DHT22;8701;50.150;8.756;2023-11-21T07:10:59;9.80;99.90
17172;DHT22;8701;50.150;8.756;2023-11-21T07:15:04;9.80;99.90
17172;DHT22;8701;50.150;8.756;2023-11-21T07:19:10;9.80;99.90
17172;DHT22;8701;50.150;8.756;2023-11-21T07:23:13;9.80;99.90
17172;DHT22;8701;50.150;8.756;2023-11-21T07:27:16;9.80;99.90
17172;DHT22;8701;50.150;8.756;2023-11-21T07:31:20;9.80;99.90
17172;DHT22;8701;50.150;8.756;2023-11-21T07:35:22;9.80;99.90
17172;DHT22;8701;50.150;8.756;2023-11-21T07:39:25;9.70;99.90
17172;DHT22;8701;50.150;8.756;2023-11-21T07:43:27;9.70;99.90
17172;DHT22;8701;50.150;8.756;2023-11-21T07:47:37;9.80;99.90
17172;DHT22;8701;50.150;8.756;2023-11-21T07:51:40;9.80;99.90
17172;DHT22;8701;50.150;8.756;2023-11-21T07:55:42;9.80;99.90
17172;DHT22;8701;50.150;8.756;2023-11-21T07:59:48;9.90;99.90
17172;DHT22;8701;50.150;8.756;2023-11-21T08:03:51;9.90;99.90
17172;DHT22;8701;50.150;8.756;2023-11-21T08:07:57;10.00;99.90
17172;DHT22;8701;50.150;8.756;2023-11-21T08:11:59;10.00;99.90
17172;DHT22;8701;50.150;8.756;2023-11-21T08:16:04;10.00;99.90
17172;DHT22;8701;50.150;8.756;2023-11-21T08:20:11;10.00;99.90
17172;DHT22;8701;50.150;8.756;2023-11-21T08:24:13;10.00;99.90
17172;DHT22;8701;50.150;8.756;2023-11-21T08:28:16;10.00;99.90
17172;DHT22;8701;50.150;8.756;2023-11-21T08:32:18;10.00;99.90
17172;DHT22;8701;50.150;8.756;2023-11-21T08:36:22;10.00;99.90
17172;DHT22;8701;50.150;8.756;2023-11-21T08:40:25;10.00;99.90
17172;DHT22;8701;50.150;8.756;2023-11-21T08:44:27;10.00;99.90
17172;DHT22;8701;50.150;8.756;2023-11-21T08:48:29;10.00;99.90
17172;DHT22;8701;50.150;8.756;2023-11-21T08:52:33;10.10;99.90
17172;DHT22;8701;50.150;8.756;2023-11-21T08:56:35;10.10;99.90
17172;DHT22;8701;50.150;8.756;2023-11-21T09:00:37;10.10;99.90
17172;DHT22;8701;50.150;8.756;2023-11-21T09:04:39;10.10;99.90
17172;DHT22;8701;50.150;8.756;2023-11-21T09:08:43;10.10;99.90
17172;DHT22;8701;50.150;8.756;2023-11-21T09:12:45;10.00;99.90
17172;DHT22;8701;50.150;8.756;2023-11-21T09:16:47;10.00;99.90
17172;DHT22;8701;50.150;8.756;2023-11-21T09:20:49;10.10;99.90
17172;DHT22;8701;50.150;8.756;2023-11-21T09:24:53;10.10;99.90
17172;DHT22;8701;50.150;8.756;2023-11-21T09:28:57;10.10;99.90
17172;DHT22;8701;50.150;8.756;2023-11-21T09:32:59;10.20;99.90
17172;DHT22;8701;50.150;8.756;2023-11-21T09:37:02;10.10;99.90
17172;DHT22;8701;50.150;8.756;2023-11-21T09:41:14;10.00;99.90
17172;DHT22;8701;50.150;8.756;2023-11-21T09:45:23;10.00;99.90
17172;DHT22;8701;50.150;8.756;2023-11-21T09:49:26;10.20;99.90
17172;DHT22;8701;50.150;8.756;2023-11-21T09:53:30;10.60;99.90
17172;DHT22;8701;50.150;8.756;2023-11-21T09:57:35;11.00;99.90
17172;DHT22;8701;50.150;8.756;2023-11-21T10:01:38;11.30;99.90
17172;DHT22;8701;50.150;8.756;2023-11-21T10:05:43;11.50;99.90
17172;DHT22;8701;50.150;8.756;2023-11-21T10:09:47;11.70;99.90
17172;DHT22;8701;50.150;8.756;2023-11-21T10:13:52;11.90;99.90
17172;DHT22;8701;50.150;8.756;2023-11-21T10:17:55;12.10;99.90
17172;DHT22;8701;50.150;8.756;2023-11-21T10:21:59;12.20;99.90
17172;DHT22;8701;50.150;8.756;2023-11-21T10:26:04;12.40;99.90
17172;DHT22;8701;50.150;8.756;2023-11-21T10:30:11;12.50;99.90
17172;DHT22;8701;50.150;8.756;2023-11-21T10:34:14;12.70;99.90
17172;DHT22;8701;50.150;8.756;2023-11-21T10:38:16;12.80;99.90
17172;DHT22;8701;50.150;8.756;2023-11-21T10:42:19;12.90;99.90
17172;DHT22;8701;50.150;8.756;2023-11-21T10:46:23;13.10;99.90
17172;DHT22;8701;50.150;8.756;2023-11-21T10:50:26;13.20;99.90
17172;DHT22;8701;50.150;8.756;2023-11-21T10:54:29;13.40;99.90
17172;DHT22;8701;50.150;8.756;2023-11-21T10:58:31;13.60;99.90
17172;DHT22;8701;50.150;8.756;2023-11-21T11:02:35;13.90;99.90
17172;DHT22;8701;50.150;8.756;2023-11-21T11:06:38;14.30;99.90
17172;DHT22;8701;50.150;8.756;2023-11-21T11:10:40;14.60;99.90
17172;DHT22;8701;50.150;8.756;2023-11-21T11:14:43;15.30;99.90
17172;DHT22;8701;50.150;8.756;2023-11-21T11:18:47;15.80;99.90
17172;DHT22;8701;50.150;8.756;2023-11-21T11:22:59;15.80;99.90
17172;DHT22;8701;50.150;8.756;2023-11-21T11:27:14;15.40;99.90
17172;DHT22;8701;50.150;8.756;2023-11-21T11:31:27;15.20;99.90
17172;DHT22;8701;50.150;8.756;2023-11-21T11:35:46;15.10;99.90
17172;DHT22;8701;50.150;8.756;2023-11-21T11:39:51;15.00;99.90
17172;DHT22;8701;50.150;8.756;2023-11-21T11:43:55;15.10;99.90
17172;DHT22;8701;50.150;8.756;2023-11-21T11:47:57;15.10;99.90
17172;DHT22;8701;50.150;8.756;2023-11-21T11:56:48;15.10;99.90
17172;DHT22;8701;50.150;8.756;2023-11-21T12:00:50;14.80;99.90
17172;DHT22;8701;50.150;8.756;2023-11-21T12:04:56;14.60;99.90
17172;DHT22;8701;50.150;8.756;2023-11-21T12:09:01;14.60;99.90
17172;DHT22;8701;50.150;8.756;2023-11-21T12:13:08;14.60;99.90
17172;DHT22;8701;50.150;8.756;2023-11-21T12:17:11;14.60;99.90
17172;DHT22;8701;50.150;8.756;2023-11-21T12:21:14;14.60;99.90
17172;DHT22;8701;50.150;8.756;2023-11-21T12:25:18;14.50;99.90
17172;DHT22;8701;50.150;8.756;2023-11-21T12:29:21;14.30;99.90
17172;DHT22;8701;50.150;8.756;2023-11-21T12:33:24;14.10;99.90
17172;DHT22;8701;50.150;8.756;2023-11-21T12:37:27;13.90;99.90
17172;DHT22;8701;50.150;8.756;2023-11-21T12:41:29;13.80;99.90
17172;DHT22;8701;50.150;8.756;2023-11-21T12:45:33;13.70;99.90
17172;DHT22;8701;50.150;8.756;2023-11-21T12:49:36;13.60;99.90
17172;DHT22;8701;50.150;8.756;2023-11-21T12:53:39;13.60;99.90
17172;DHT22;8701;50.150;8.756;2023-11-21T12:57:43;13.50;99.90
17172;DHT22;8701;50.150;8.756;2023-11-21T13:01:46;13.40;99.90
17172;DHT22;8701;50.150;8.756;2023-11-21T13:05:53;13.30;99.90
17172;DHT22;8701;50.150;8.756;2023-11-21T13:09:57;13.40;99.90
17172;DHT22;8701;50.150;8.756;2023-11-21T13:14:00;13.40;99.90
17172;DHT22;8701;50.150;8.756;2023-11-21T13:18:03;13.50;99.90
17172;DHT22;8701;50.150;8.756;2023-11-21T13:22:05;13.60;99.90
17172;DHT22;8701;50.150;8.756;2023-11-21T13:26:12;13.70;99.90
17172;DHT22;8701;50.150;8.756;2023-11-21T13:30:16;13.70;99.90
17172;DHT22;8701;50.150;8.756;2023-11-21T13:34:21;13.70;99.90
17172;DHT22;8701;50.150;8.756;2023-11-21T13:38:26;13.60;99.90
17172;DHT22;8701;50.150;8.756;2023-11-21T13:42:33;13.60;99.90
17172;DHT22;8701;50.150;8.756;2023-11-21T13:46:35;13.40;99.90
17172;DHT22;8701;50.150;8.756;2023-11-21T13:50:39;13.20;99.90
17172;DHT22;8701;50.150;8.756;2023-11-21T13:54:49;13.20;99.90
17172;DHT22;8701;50.150;8.756;2023-11-21T13:58:52;13.00;99.90
17172;DHT22;8701;50.150;8.756;2023-11-21T14:02:55;12.90;99.90
17172;DHT22;8701;50.150;8.756;2023-11-21T14:07:02;12.80;99.90
17172;DHT22;8701;50.150;8.756;2023-11-21T14:11:21;12.70;99.90
17172;DHT22;8701;50.150;8.756;2023-11-21T14:15:23;12.70;99.90
17172;DHT22;8701;50.150;8.756;2023-11-21T14:19:26;12.60;99.90
17172;DHT22;8701;50.150;8.756;2023-11-21T14:23:33;12.50;99.90
17172;DHT22;8701;50.150;8.756;2023-11-21T14:27:37;12.40;99.90
17172;DHT22;8701;50.150;8.756;2023-11-21T14:31:39;12.40;99.90
17172;DHT22;8701;50.150;8.756;2023-11-21T14:35:42;12.40;99.90
17172;DHT22;8701;50.150;8.756;2023-11-21T14:39:46;12.30;99.90
17172;DHT22;8701;50.150;8.756;2023-11-21T14:43:50;12.20;99.90
17172;DHT22;8701;50.150;8.756;2023-11-21T14:47:54;12.10;99.90
17172;DHT22;8701;50.150;8.756;2023-11-21T14:52:06;12.10;99.90
17172;DHT22;8701;50.150;8.756;2023-11-21T14:56:20;12.20;99.90
17172;DHT22;8701;50.150;8.756;2023-11-21T15:00:27;12.10;99.90
17172;DHT22;8701;50.150;8.756;2023-11-21T15:04:45;12.00;99.90
17172;DHT22;8701;50.150;8.756;2023-11-21T15:08:51;12.00;99.90
17172;DHT22;8701;50.150;8.756;2023-11-21T15:13:14;12.00;99.90
17172;DHT22;8701;50.150;8.756;2023-11-21T15:17:17;12.00;99.90
17172;DHT22;8701;50.150;8.756;2023-11-21T15:21:23;12.00;99.90
17172;DHT22;8701;50.150;8.756;2023-11-21T15:25:26;11.90;99.90
17172;DHT22;8701;50.150;8.756;2023-11-21T15:29:29;11.90;99.90
17172;DHT22;8701;50.150;8.756;2023-11-21T15:33:31;11.90;99.90
17172;DHT22;8701;50.150;8.756;2023-11-21T15:37:33;11.80;99.90
17172;DHT22;8701;50.150;8.756;2023-11-21T15:41:37;11.80;99.90
17172;DHT22;8701;50.150;8.756;2023-11-21T15:45:41;11.80;99.90
17172;DHT22;8701;50.150;8.756;2023-11-21T15:49:43;11.80;99.90
17172;DHT22;8701;50.150;8.756;2023-11-21T15:53:46;11.70;99.90
17172;DHT22;8701;50.150;8.756;2023-11-21T15:57:49;11.70;99.90
17172;DHT22;8701;50.150;8.756;2023-11-21T16:01:53;11.70;99.90
17172;DHT22;8701;50.150;8.756;2023-11-21T16:05:55;11.60;99.90
17172;DHT22;8701;50.150;8.756;2023-11-21T16:09:57;11.70;99.90
17172;DHT22;8701;50.150;8.756;2023-11-21T16:13:59;11.70;99.90
17172;DHT22;8701;50.150;8.756;2023-11-21T16:18:03;11.60;99.90
17172;DHT22;8701;50.150;8.756;2023-11-21T16:22:06;11.60;99.90
17172;DHT22;8701;50.150;8.756;2023-11-21T16:26:08;11.60;99.90
17172;DHT22;8701;50.150;8.756;2023-11-21T16:30:12;11.50;99.90
17172;DHT22;8701;50.150;8.756;2023-11-21T16:34:18;11.50;99.90
17172;DHT22;8701;50.150;8.756;2023-11-21T16:38:20;11.50;99.90
17172;DHT22;8701;50.150;8.756;2023-11-21T16:42:23;11.50;99.90
17172;DHT22;8701;50.150;8.756;2023-11-21T16:46:25;11.50;99.90
17172;DHT22;8701;50.150;8.756;2023-11-21T16:50:28;11.50;99.90
17172;DHT22;8701;50.150;8.756;2023-11-21T16:54:31;11.40;99.90
17172;DHT22;8701;50.150;8.756;2023-11-21T16:58:33;11.40;99.90
17172;DHT22;8701;50.150;8.756;2023-11-21T17:02:35;11.40;99.90
17172;DHT22;8701;50.150;8.756;2023-11-21T17:06:41;11.20;99.90
17172;DHT22;8701;50.150;8.756;2023-11-21T17:10:46;11.20;99.90
17172;DHT22;8701;50.150;8.756;2023-11-21T17:14:50;11.20;99.90
17172;DHT22;8701;50.150;8.756;2023-11-21T17:18:52;11.10;99.90
17172;DHT22;8701;50.150;8.756;2023-11-21T17:22:55;11.10;99.90
17172;DHT22;8701;50.150;8.756;2023-11-21T17:26:58;11.10;99.90
17172;DHT22;8701;50.150;8.756;2023-11-21T17:31:01;11.00;99.90
17172;DHT22;8701;50.150;8.756;2023-11-21T17:35:04;11.10;99.90
17172;DHT22;8701;50.150;8.756;2023-11-21T17:39:10;10.90;99.90
17172;DHT22;8701;50.150;8.756;2023-11-21T17:43:12;10.90;99.90
17172;DHT22;8701;50.150;8.756;2023-11-21T17:47:14;10.90;99.90
17172;DHT22;8701;50.150;8.756;2023-11-21T17:51:17;10.80;99.90
17172;DHT22;8701;50.150;8.756;2023-11-21T17:55:20;10.80;99.90
17172;DHT22;8701;50.150;8.756;2023-11-21T17:59:22;10.80;99.90
17172;DHT22;8701;50.150;8.756;2023-11-21T18:03:24;10.90;99.90
17172;DHT22;8701;50.150;8.756;2023-11-21T18:07:27;10.90;99.90
17172;DHT22;8701;50.150;8.756;2023-11-21T18:11:30;10.90;99.90
17172;DHT22;8701;50.150;8.756;2023-11-21T18:15:33;10.80;99.90
17172;DHT22;8701;50.150;8.756;2023-11-21T18:19:35;10.80;99.90
17172;DHT22;8701;50.150;8.756;2023-11-21T18:23:37;10.80;99.90
17172;DHT22;8701;50.150;8.756;2023-11-21T18:27:40;10.80;99.90
17172;DHT22;8701;50.150;8.756;2023-11-21T18:31:43;10.70;99.90
17172;DHT22;8701;50.150;8.756;2023-11-21T18:35:45;10.60;99.90
17172;DHT22;8701;50.150;8.756;2023-11-21T18:39:47;10.60;99.90
17172;DHT22;8701;50.150;8.756;2023-11-21T18:43:51;10.40;99.90
17172;DHT22;8701;50.150;8.756;2023-11-21T18:47:54;10.40;99.90
17172;DHT22;8701;50.150;8.756;2023-11-21T18:51:57;10.30;99.90
17172;DHT22;8701;50.150;8.756;2023-11-21T18:55:59;10.30;99.90
17172;DHT22;8701;50.150;8.756;2023-11-21T19:00:04;10.20;99.90
17172;DHT22;8701;50.150;8.756;2023-11-21T19:04:10;10.00;99.90
17172;DHT22;8701;50.150;8.756;2023-11-21T19:08:13;10.00;99.90
17172;DHT22;8701;50.150;8.756;2023-11-21T19:12:16;9.90;99.90
17172;DHT22;8701;50.150;8.756;2023-11-21T19:16:20;9.70;99.90
17172;DHT22;8701;50.150;8.756;2023-11-21T19:20:22;9.70;99.90
17172;DHT22;8701;50.150;8.756;2023-11-21T19:24:25;9.60;99.90
17172;DHT22;8701;50.150;8.756;2023-11-21T19:28:27;9.50;99.90
17172;DHT22;8701;50.150;8.756;2023-11-21T19:32:30;9.50;99.90
17172;DHT22;8701;50.150;8.756;2023-11-21T19:36:38;9.50;99.90
17172;DHT22;8701;50.150;8.756;2023-11-21T19:40:41;9.40;99.90
17172;DHT22;8701;50.150;8.756;2023-11-21T19:44:45;9.40;99.90
17172;DHT22;8701;50.150;8.756;2023-11-21T19:48:48;9.40;99.90
17172;DHT22;8701;50.150;8.756;2023-11-21T19:52:53;9.30;99.90
17172;DHT22;8701;50.150;8.756;2023-11-21T19:56:56;9.30;99.90
17172;DHT22;8701;50.150;8.756;2023-11-21T20:00:58;9.20;99.90
17172;DHT22;8701;50.150;8.756;2023-11-21T20:05:01;9.30;99.90
17172;DHT22;8701;50.150;8.756;2023-11-21T20:09:04;9.30;99.90
17172;DHT22;8701;50.150;8.756;2023-11-21T20:13:07;9.30;99.90
17172;DHT22;8701;50.150;8.756;2023-11-21T20:17:11;9.30;99.90
17172;DHT22;8701;50.150;8.756;2023-11-21T20:21:20;9.30;99.90
17172;DHT22;8701;50.150;8.756;2023-11-21T20:25:23;9.20;99.90
17172;DHT22;8701;50.150;8.756;2023-11-21T20:29:25;9.20;99.90
17172;DHT22;8701;50.150;8.756;2023-11-21T20:33:27;9.20;99.90
17172;DHT22;8701;50.150;8.756;2023-11-21T20:37:31;9.20;99.90
17172;DHT22;8701;50.150;8.756;2023-11-21T20:41:34;9.20;99.90
17172;DHT22;8701;50.150;8.756;2023-11-21T20:45:36;9.30;99.90
17172;DHT22;8701;50.150;8.756;2023-11-21T20:49:40;9.40;99.90
17172;DHT22;8701;50.150;8.756;2023-11-21T20:53:44;9.30;99.90
17172;DHT22;8701;50.150;8.756;2023-11-21T20:57:47;9.20;99.90
17172;DHT22;8701;50.150;8.756;2023-11-21T21:01:50;9.10;99.90
17172;DHT22;8701;50.150;8.756;2023-11-21T21:05:52;9.10;99.90
17172;DHT22;8701;50.150;8.756;2023-11-21T21:09:56;9.20;99.90
17172;DHT22;8701;50.150;8.756;2023-11-21T21:13:59;9.10;99.90
17172;DHT22;8701;50.150;8.756;2023-11-21T21:18:01;9.00;99.90
17172;DHT22;8701;50.150;8.756;2023-11-21T21:22:06;8.80;99.90
17172;DHT22;8701;50.150;8.756;2023-11-21T21:26:09;8.80;99.90
17172;DHT22;8701;50.150;8.756;2023-11-21T21:30:12;8.70;99.90
17172;DHT22;8701;50.150;8.756;2023-11-21T21:34:14;8.70;99.90
17172;DHT22;8701;50.150;8.756;2023-11-21T21:38:18;8.80;99.90
17172;DHT22;8701;50.150;8.756;2023-11-21T21:42:21;8.70;99.90
17172;DHT22;8701;50.150;8.756;2023-11-21T21:46:24;8.80;99.90
17172;DHT22;8701;50.150;8.756;2023-11-21T21:50:26;8.80;99.90
17172;DHT22;8701;50.150;8.756;2023-11-21T21:54:30;8.70;99.90
17172;DHT22;8701;50.150;8.756;2023-11-21T21:58:34;8.70;99.90
17172;DHT22;8701;50.150;8.756;2023-11-21T22:02:36;8.70;99.90
17172;DHT22;8701;50.150;8.756;2023-11-21T22:06:39;8.70;99.90
17172;DHT22;8701;50.150;8.756;2023-11-21T22:10:42;8.70;99.90
17172;DHT22;8701;50.150;8.756;2023-11-21T22:14:45;8.60;99.90
17172;DHT22;8701;50.150;8.756;2023-11-21T22:18:48;8.50;99.90
17172;DHT22;8701;50.150;8.756;2023-11-21T22:22:50;8.40;99.90
17172;DHT22;8701;50.150;8.756;2023-11-21T22:26:52;8.40;99.90
17172;DHT22;8701;50.150;8.756;2023-11-21T22:30:56;8.30;99.90
17172;DHT22;8701;50.150;8.756;2023-11-21T22:34:58;8.40;99.90
17172;DHT22;8701;50.150;8.756;2023-11-21T22:39:00;8.50;99.90
17172;DHT22;8701;50.150;8.756;2023-11-21T22:43:03;8.40;99.90
17172;DHT22;8701;50.150;8.756;2023-11-21T22:47:06;8.30;99.90
17172;DHT22;8701;50.150;8.756;2023-11-21T22:51:09;8.20;99.90
17172;DHT22;8701;50.150;8.756;2023-11-21T22:55:12;8.10;99.90
17172;DHT22;8701;50.150;8.756;2023-11-21T22:59:15;8.00;99.90
17172;DHT22;8701;50.150;8.756;2023-11-21T23:03:19;7.80;99.90
17172;DHT22;8701;50.150;8.756;2023-11-21T23:07:21;7.70;99.90
17172;DHT22;8701;50.150;8.756;2023-11-21T23:11:24;7.60;99.90
17172;DHT22;8701;50.150;8.756;2023-11-21T23:15:26;7.50;99.90
17172;DHT22;8701;50.150;8.756;2023-11-21T23:19:29;7.40;99.90
17172;DHT22;8701;50.150;8.756;2023-11-21T23:23:31;7.30;99.90
17172;DHT22;8701;50.150;8.756;2023-11-21T23:27:34;7.20;99.90
17172;DHT22;8701;50.150;8.756;2023-11-21T23:31:36;7.20;99.90
17172;DHT22;8701;50.150;8.756;2023-11-21T23:35:39;7.10;99.90
17172;DHT22;8701;50.150;8.756;2023-11-21T23:39:42;6.90;99.90
17172;DHT22;8701;50.150;8.756;2023-11-21T23:43:44;6.90;99.90
17172;DHT22;8701;50.150;8.756;2023-11-21T23:47:46;6.80;99.90
17172;DHT22;8701;50.150;8.756;2023-11-21T23:51:50;6.80;99.90
17172;DHT22;8701;50.150;8.756;2023-11-21T23:55:52;6.70;99.90
17172;DHT22;8701;50.150;8.756;2023-11-21T23:59:54;6.50;99.90
